sensor_id;sensor_type;location;lat;lon;timestamp;temperature;humidity
15386;DHT22;7791;47.246;9.648;2023-11-19T00:04:07;7.00;99.90
15386;DHT22;7791;47.246;9.648;2023-11-19T00:06:39;7.00;99.90
15386;DHT22;7791;47.246;9.648;2023-11-19T00:09:18;7.00;99.90
15386;DHT22;7791;47.246;9.648;2023-11-19T00:11:57;7.00;99.90
15386;DHT22;7791;47.246;9.648;2023-11-19T00:14:29;6.90;99.90
15386;DHT22;7791;47.246;9.648;2023-11-19T00:17:08;6.90;99.90
15386;DHT22;7791;47.246;9.648;2023-11-19T00:19:48;6.90;99.90
15386;DHT22;7791;47.246;9.648;2023-11-19T00:22:33;6.90;99.90
15386;DHT22;7791;47.246;9.648;2023-11-19T00:25:17;6.90;99.90
15386;DHT22;7791;47.246;9.648;2023-11-19T00:27:50;7.00;99.90
15386;DHT22;7791;47.246;9.648;2023-11-19T00:30:34;7.00;99.90
15386;DHT22;7791;47.246;9.648;2023-11-19T00:33:19;7.10;99.90
15386;DHT22;7791;47.246;9.648;2023-11-19T00:35:58;7.10;99.90
15386;DHT22;7791;47.246;9.648;2023-11-19T00:38:30;7.10;99.90
15386;DHT22;7791;47.246;9.648;2023-11-19T00:41:10;7.20;99.90
15386;DHT22;7791;47.246;9.648;2023-11-19T00:43:47;7.20;99.90
15386;DHT22;7791;47.246;9.648;2023-11-19T00:46:26;7.20;99.90
15386;DHT22;7791;47.246;9.648;2023-11-19T00:49:09;7.20;99.90
15386;DHT22;7791;47.246;9.648;2023-11-19T00:52:09;7.10;99.90
15386;DHT22;7791;47.246;9.648;2023-11-19T00:54:51;7.10;99.90
15386;DHT22;7791;47.246;9.648;2023-11-19T00:57:20;7.10;99.90
15386;DHT22;7791;47.246;9.648;2023-11-19T00:59:55;7.20;99.90
15386;DHT22;7791;47.246;9.648;2023-11-19T01:02:31;7.20;99.90
15386;DHT22;7791;47.246;9.648;2023-11-19T01:05:30;7.10;99.90
15386;DHT22;7791;47.246;9.648;2023-11-19T01:08:19;7.00;99.90
15386;DHT22;7791;47.246;9.648;2023-11-19T01:11:02;6.80;99.90
15386;DHT22;7791;47.246;9.648;2023-11-19T01:13:55;6.90;99.90
15386;DHT22;7791;47.246;9.648;2023-11-19T01:16:25;7.00;99.90
15386;DHT22;7791;47.246;9.648;2023-11-19T01:19:03;7.20;99.90
15386;DHT22;7791;47.246;9.648;2023-11-19T01:24:52;7.20;99.90
15386;DHT22;7791;47.246;9.648;2023-11-19T01:27:43;7.20;99.90
15386;DHT22;7791;47.246;9.648;2023-11-19T01:30:21;7.30;99.90
15386;DHT22;7791;47.246;9.648;2023-11-19T01:32:56;7.30;99.90
15386;DHT22;7791;47.246;9.648;2023-11-19T01:35:54;7.10;99.90
15386;DHT22;7791;47.246;9.648;2023-11-19T01:38:25;7.20;99.90
15386;DHT22;7791;47.246;9.648;2023-11-19T01:40:57;7.10;99.90
15386;DHT22;7791;47.246;9.648;2023-11-19T01:43:42;7.10;99.90
15386;DHT22;7791;47.246;9.648;2023-11-19T01:46:11;7.20;99.90
15386;DHT22;7791;47.246;9.648;2023-11-19T01:49:05;7.10;99.90
15386;DHT22;7791;47.246;9.648;2023-11-19T01:52:01;7.20;99.90
15386;DHT22;7791;47.246;9.648;2023-11-19T01:54:31;7.20;99.90
15386;DHT22;7791;47.246;9.648;2023-11-19T02:05:30;7.10;99.90
15386;DHT22;7791;47.246;9.648;2023-11-19T02:08:09;7.10;99.90
15386;DHT22;7791;47.246;9.648;2023-11-19T02:10:55;7.20;99.90
15386;DHT22;7791;47.246;9.648;2023-11-19T02:13:39;7.20;99.90
15386;DHT22;7791;47.246;9.648;2023-11-19T02:16:28;7.30;99.90
15386;DHT22;7791;47.246;9.648;2023-11-19T02:19:18;7.20;99.90
15386;DHT22;7791;47.246;9.648;2023-11-19T02:21:53;7.20;99.90
15386;DHT22;7791;47.246;9.648;2023-11-19T02:24:42;7.20;99.90
15386;DHT22;7791;47.246;9.648;2023-11-19T02:27:28;7.10;99.90
15386;DHT22;7791;47.246;9.648;2023-11-19T02:30:12;7.10;99.90
15386;DHT22;7791;47.246;9.648;2023-11-19T02:32:50;7.10;99.90
15386;DHT22;7791;47.246;9.648;2023-11-19T02:35:34;7.00;99.90
15386;DHT22;7791;47.246;9.648;2023-11-19T02:39:48;7.00;99.90
15386;DHT22;7791;47.246;9.648;2023-11-19T02:41:14;7.20;99.90
15386;DHT22;7791;47.246;9.648;2023-11-19T02:44:03;7.20;99.90
15386;DHT22;7791;47.246;9.648;2023-11-19T02:46:40;7.30;99.90
15386;DHT22;7791;47.246;9.648;2023-11-19T02:49:27;7.30;99.90
15386;DHT22;7791;47.246;9.648;2023-11-19T02:52:05;7.30;99.90
15386;DHT22;7791;47.246;9.648;2023-11-19T02:54:46;7.40;99.90
15386;DHT22;7791;47.246;9.648;2023-11-19T02:57:21;7.50;99.90
15386;DHT22;7791;47.246;9.648;2023-11-19T03:00:02;7.50;99.90
15386;DHT22;7791;47.246;9.648;2023-11-19T03:02:52;7.50;99.90
15386;DHT22;7791;47.246;9.648;2023-11-19T03:08:39;7.70;99.90
15386;DHT22;7791;47.246;9.648;2023-11-19T03:11:05;7.70;99.90
15386;DHT22;7791;47.246;9.648;2023-11-19T03:13:44;7.90;99.90
15386;DHT22;7791;47.246;9.648;2023-11-19T03:16:41;7.90;99.90
15386;DHT22;7791;47.246;9.648;2023-11-19T03:22:21;7.90;99.90
15386;DHT22;7791;47.246;9.648;2023-11-19T03:24:55;7.90;99.90
15386;DHT22;7791;47.246;9.648;2023-11-19T03:27:21;7.90;99.90
15386;DHT22;7791;47.246;9.648;2023-11-19T03:29:47;7.90;99.90
15386;DHT22;7791;47.246;9.648;2023-11-19T03:32:23;8.00;99.90
15386;DHT22;7791;47.246;9.648;2023-11-19T03:35:00;7.80;99.90
15386;DHT22;7791;47.246;9.648;2023-11-19T03:37:39;7.80;99.90
15386;DHT22;7791;47.246;9.648;2023-11-19T03:40:18;7.80;99.90
15386;DHT22;7791;47.246;9.648;2023-11-19T03:42:57;7.80;99.90
15386;DHT22;7791;47.246;9.648;2023-11-19T03:51:22;7.30;99.90
15386;DHT22;7791;47.246;9.648;2023-11-19T03:54:03;7.20;99.90
15386;DHT22;7791;47.246;9.648;2023-11-19T03:56:43;7.40;99.90
15386;DHT22;7791;47.246;9.648;2023-11-19T03:59:24;7.60;99.90
15386;DHT22;7791;47.246;9.648;2023-11-19T04:02:00;7.60;99.90
15386;DHT22;7791;47.246;9.648;2023-11-19T04:04:32;7.60;99.90
15386;DHT22;7791;47.246;9.648;2023-11-19T04:07:20;7.60;99.90
15386;DHT22;7791;47.246;9.648;2023-11-19T04:10:08;7.60;99.90
15386;DHT22;7791;47.246;9.648;2023-11-19T04:12:48;7.80;99.90
15386;DHT22;7791;47.246;9.648;2023-11-19T04:18:30;7.90;99.90
15386;DHT22;7791;47.246;9.648;2023-11-19T04:21:01;7.80;99.90
15386;DHT22;7791;47.246;9.648;2023-11-19T04:23:44;7.80;99.90
15386;DHT22;7791;47.246;9.648;2023-11-19T04:26:20;7.70;99.90
15386;DHT22;7791;47.246;9.648;2023-11-19T04:31:44;7.60;99.90
15386;DHT22;7791;47.246;9.648;2023-11-19T04:34:17;7.70;99.90
15386;DHT22;7791;47.246;9.648;2023-11-19T04:37:03;7.60;99.90
15386;DHT22;7791;47.246;9.648;2023-11-19T04:39:36;7.50;99.90
15386;DHT22;7791;47.246;9.648;2023-11-19T04:42:02;7.70;99.90
15386;DHT22;7791;47.246;9.648;2023-11-19T04:44:28;7.80;99.90
15386;DHT22;7791;47.246;9.648;2023-11-19T04:50:01;7.90;99.90
15386;DHT22;7791;47.246;9.648;2023-11-19T04:52:43;7.90;99.90
15386;DHT22;7791;47.246;9.648;2023-11-19T04:55:33;7.90;99.90
15386;DHT22;7791;47.246;9.648;2023-11-19T04:58:16;7.90;99.90
15386;DHT22;7791;47.246;9.648;2023-11-19T05:00:46;7.80;99.90
15386;DHT22;7791;47.246;9.648;2023-11-19T05:03:21;7.60;99.90
15386;DHT22;7791;47.246;9.648;2023-11-19T05:06:05;7.80;99.90
15386;DHT22;7791;47.246;9.648;2023-11-19T05:08:48;8.00;99.90
15386;DHT22;7791;47.246;9.648;2023-11-19T05:11:56;8.10;99.90
15386;DHT22;7791;47.246;9.648;2023-11-19T05:14:38;8.00;99.90
15386;DHT22;7791;47.246;9.648;2023-11-19T05:20:07;7.90;99.90
15386;DHT22;7791;47.246;9.648;2023-11-19T05:23:08;7.90;99.90
15386;DHT22;7791;47.246;9.648;2023-11-19T05:25:53;7.90;99.90
15386;DHT22;7791;47.246;9.648;2023-11-19T05:28:28;7.80;99.90
15386;DHT22;7791;47.246;9.648;2023-11-19T05:31:06;7.90;99.90
15386;DHT22;7791;47.246;9.648;2023-11-19T05:33:38;7.70;99.90
15386;DHT22;7791;47.246;9.648;2023-11-19T05:36:18;7.80;99.90
15386;DHT22;7791;47.246;9.648;2023-11-19T05:41:40;7.90;99.90
15386;DHT22;7791;47.246;9.648;2023-11-19T05:44:27;8.00;99.90
15386;DHT22;7791;47.246;9.648;2023-11-19T05:47:19;7.90;99.90
15386;DHT22;7791;47.246;9.648;2023-11-19T05:49:50;8.00;99.90
15386;DHT22;7791;47.246;9.648;2023-11-19T05:52:28;7.90;99.90
15386;DHT22;7791;47.246;9.648;2023-11-19T05:55:19;7.80;99.90
15386;DHT22;7791;47.246;9.648;2023-11-19T05:58:09;8.00;99.90
15386;DHT22;7791;47.246;9.648;2023-11-19T06:00:56;8.10;99.90
15386;DHT22;7791;47.246;9.648;2023-11-19T06:03:30;8.10;99.90
15386;DHT22;7791;47.246;9.648;2023-11-19T06:05:59;8.10;99.90
15386;DHT22;7791;47.246;9.648;2023-11-19T06:08:32;8.20;99.90
15386;DHT22;7791;47.246;9.648;2023-11-19T06:11:11;8.10;99.90
15386;DHT22;7791;47.246;9.648;2023-11-19T06:13:53;8.10;99.90
15386;DHT22;7791;47.246;9.648;2023-11-19T06:16:42;8.10;99.90
15386;DHT22;7791;47.246;9.648;2023-11-19T06:19:12;8.20;99.90
15386;DHT22;7791;47.246;9.648;2023-11-19T06:22:03;8.10;99.90
15386;DHT22;7791;47.246;9.648;2023-11-19T06:24:51;8.10;99.90
15386;DHT22;7791;47.246;9.648;2023-11-19T06:27:45;8.00;99.90
15386;DHT22;7791;47.246;9.648;2023-11-19T06:30:18;8.10;99.90
15386;DHT22;7791;47.246;9.648;2023-11-19T06:32:56;8.00;99.90
15386;DHT22;7791;47.246;9.648;2023-11-19T06:35:32;8.00;99.90
15386;DHT22;7791;47.246;9.648;2023-11-19T06:38:08;8.00;99.90
15386;DHT22;7791;47.246;9.648;2023-11-19T06:40:41;7.80;99.90
15386;DHT22;7791;47.246;9.648;2023-11-19T06:43:37;7.80;99.90
15386;DHT22;7791;47.246;9.648;2023-11-19T06:46:29;7.80;99.90
15386;DHT22;7791;47.246;9.648;2023-11-19T06:49:08;7.90;99.90
15386;DHT22;7791;47.246;9.648;2023-11-19T06:51:52;7.80;99.90
15386;DHT22;7791;47.246;9.648;2023-11-19T06:57:30;7.70;99.90
15386;DHT22;7791;47.246;9.648;2023-11-19T07:00:01;7.80;99.90
15386;DHT22;7791;47.246;9.648;2023-11-19T07:02:49;7.80;99.90
15386;DHT22;7791;47.246;9.648;2023-11-19T07:05:26;7.80;99.90
15386;DHT22;7791;47.246;9.648;2023-11-19T07:08:01;7.80;99.90
15386;DHT22;7791;47.246;9.648;2023-11-19T07:10:44;7.80;99.90
15386;DHT22;7791;47.246;9.648;2023-11-19T07:16:01;7.90;99.90
15386;DHT22;7791;47.246;9.648;2023-11-19T07:18:38;7.60;99.90
15386;DHT22;7791;47.246;9.648;2023-11-19T07:21:27;7.60;99.90
15386;DHT22;7791;47.246;9.648;2023-11-19T07:24:05;7.80;99.90
15386;DHT22;7791;47.246;9.648;2023-11-19T07:26:47;7.90;99.90
15386;DHT22;7791;47.246;9.648;2023-11-19T07:29:35;8.10;99.90
15386;DHT22;7791;47.246;9.648;2023-11-19T07:38:19;8.00;99.90
15386;DHT22;7791;47.246;9.648;2023-11-19T07:41:02;8.10;99.90
15386;DHT22;7791;47.246;9.648;2023-11-19T07:43:38;8.10;99.90
15386;DHT22;7791;47.246;9.648;2023-11-19T07:46:22;8.10;99.90
15386;DHT22;7791;47.246;9.648;2023-11-19T07:49:04;8.10;99.90
15386;DHT22;7791;47.246;9.648;2023-11-19T07:51:36;8.10;99.90
15386;DHT22;7791;47.246;9.648;2023-11-19T07:54:29;8.20;99.90
15386;DHT22;7791;47.246;9.648;2023-11-19T07:57:11;8.10;99.90
15386;DHT22;7791;47.246;9.648;2023-11-19T08:00:00;8.20;99.90
15386;DHT22;7791;47.246;9.648;2023-11-19T08:02:32;8.30;99.90
15386;DHT22;7791;47.246;9.648;2023-11-19T08:05:02;8.30;99.90
15386;DHT22;7791;47.246;9.648;2023-11-19T08:07:37;8.40;99.90
15386;DHT22;7791;47.246;9.648;2023-11-19T08:10:15;8.50;99.90
15386;DHT22;7791;47.246;9.648;2023-11-19T08:12:48;8.40;99.90
15386;DHT22;7791;47.246;9.648;2023-11-19T08:15:26;8.40;99.90
15386;DHT22;7791;47.246;9.648;2023-11-19T08:18:01;8.50;99.90
15386;DHT22;7791;47.246;9.648;2023-11-19T08:20:40;8.70;99.90
15386;DHT22;7791;47.246;9.648;2023-11-19T08:23:20;8.80;99.90
15386;DHT22;7791;47.246;9.648;2023-11-19T08:26:01;8.80;99.90
15386;DHT22;7791;47.246;9.648;2023-11-19T08:31:45;8.90;99.90
15386;DHT22;7791;47.246;9.648;2023-11-19T08:34:20;9.00;99.90
15386;DHT22;7791;47.246;9.648;2023-11-19T08:37:12;9.20;99.90
15386;DHT22;7791;47.246;9.648;2023-11-19T08:40:01;9.20;99.90
15386;DHT22;7791;47.246;9.648;2023-11-19T08:42:37;8.90;99.90
15386;DHT22;7791;47.246;9.648;2023-11-19T08:45:04;8.90;99.90
15386;DHT22;7791;47.246;9.648;2023-11-19T08:47:39;9.00;99.90
15386;DHT22;7791;47.246;9.648;2023-11-19T08:50:12;9.20;99.90
15386;DHT22;7791;47.246;9.648;2023-11-19T08:52:54;9.30;99.90
15386;DHT22;7791;47.246;9.648;2023-11-19T08:55:22;9.30;99.90
15386;DHT22;7791;47.246;9.648;2023-11-19T08:58:02;9.10;99.90
15386;DHT22;7791;47.246;9.648;2023-11-19T09:00:38;8.90;99.90
15386;DHT22;7791;47.246;9.648;2023-11-19T09:03:27;8.80;99.90
15386;DHT22;7791;47.246;9.648;2023-11-19T09:06:02;8.90;99.90
15386;DHT22;7791;47.246;9.648;2023-11-19T09:08:34;8.70;99.90
15386;DHT22;7791;47.246;9.648;2023-11-19T09:11:29;8.50;99.90
15386;DHT22;7791;47.246;9.648;2023-11-19T09:14:07;8.50;99.90
15386;DHT22;7791;47.246;9.648;2023-11-19T09:16:38;8.60;99.90
15386;DHT22;7791;47.246;9.648;2023-11-19T09:19:38;8.80;99.90
15386;DHT22;7791;47.246;9.648;2023-11-19T09:22:11;9.10;99.90
15386;DHT22;7791;47.246;9.648;2023-11-19T09:24:48;9.40;99.90
15386;DHT22;7791;47.246;9.648;2023-11-19T09:27:29;9.60;99.90
15386;DHT22;7791;47.246;9.648;2023-11-19T09:33:09;9.60;99.90
15386;DHT22;7791;47.246;9.648;2023-11-19T09:35:38;9.70;99.90
15386;DHT22;7791;47.246;9.648;2023-11-19T09:38:04;9.80;99.90
15386;DHT22;7791;47.246;9.648;2023-11-19T09:43:29;9.60;99.90
15386;DHT22;7791;47.246;9.648;2023-11-19T09:45:59;9.50;99.90
15386;DHT22;7791;47.246;9.648;2023-11-19T09:48:43;9.40;99.90
15386;DHT22;7791;47.246;9.648;2023-11-19T09:54:29;9.30;99.90
15386;DHT22;7791;47.246;9.648;2023-11-19T09:57:11;9.10;99.90
15386;DHT22;7791;47.246;9.648;2023-11-19T10:08:14;9.10;99.90
15386;DHT22;7791;47.246;9.648;2023-11-19T10:10:47;9.20;99.90
15386;DHT22;7791;47.246;9.648;2023-11-19T10:13:27;9.30;99.90
15386;DHT22;7791;47.246;9.648;2023-11-19T10:19:00;9.20;99.90
15386;DHT22;7791;47.246;9.648;2023-11-19T10:24:38;9.10;99.90
15386;DHT22;7791;47.246;9.648;2023-11-19T10:27:38;9.20;99.90
15386;DHT22;7791;47.246;9.648;2023-11-19T10:30:07;9.40;99.90
15386;DHT22;7791;47.246;9.648;2023-11-19T10:32:47;9.70;99.90
15386;DHT22;7791;47.246;9.648;2023-11-19T10:35:36;9.80;99.90
15386;DHT22;7791;47.246;9.648;2023-11-19T10:38:24;10.10;99.90
15386;DHT22;7791;47.246;9.648;2023-11-19T10:41:06;10.10;99.90
15386;DHT22;7791;47.246;9.648;2023-11-19T10:43:53;10.20;99.90
15386;DHT22;7791;47.246;9.648;2023-11-19T10:46:41;10.20;99.90
15386;DHT22;7791;47.246;9.648;2023-11-19T10:49:23;10.20;99.90
15386;DHT22;7791;47.246;9.648;2023-11-19T10:51:59;10.30;99.90
15386;DHT22;7791;47.246;9.648;2023-11-19T10:54:47;10.30;99.90
15386;DHT22;7791;47.246;9.648;2023-11-19T10:57:37;10.20;99.90
15386;DHT22;7791;47.246;9.648;2023-11-19T11:00:17;10.30;99.90
15386;DHT22;7791;47.246;9.648;2023-11-19T11:03:01;10.30;99.90
15386;DHT22;7791;47.246;9.648;2023-11-19T11:06:12;10.00;99.90
15386;DHT22;7791;47.246;9.648;2023-11-19T11:08:46;10.20;99.90
15386;DHT22;7791;47.246;9.648;2023-11-19T11:14:13;10.00;99.90
15386;DHT22;7791;47.246;9.648;2023-11-19T11:16:48;10.00;99.90
15386;DHT22;7791;47.246;9.648;2023-11-19T11:19:28;10.10;99.90
15386;DHT22;7791;47.246;9.648;2023-11-19T11:22:05;10.20;99.90
15386;DHT22;7791;47.246;9.648;2023-11-19T11:28:03;10.30;99.90
15386;DHT22;7791;47.246;9.648;2023-11-19T11:30:55;10.40;99.90
15386;DHT22;7791;47.246;9.648;2023-11-19T11:34:04;10.60;99.90
15386;DHT22;7791;47.246;9.648;2023-11-19T11:36:47;10.90;99.90
15386;DHT22;7791;47.246;9.648;2023-11-19T11:39:29;11.20;99.90
15386;DHT22;7791;47.246;9.648;2023-11-19T11:45:35;11.30;99.90
15386;DHT22;7791;47.246;9.648;2023-11-19T11:48:23;11.30;99.90
15386;DHT22;7791;47.246;9.648;2023-11-19T11:51:05;11.50;99.90
15386;DHT22;7791;47.246;9.648;2023-11-19T11:53:37;11.50;99.90
15386;DHT22;7791;47.246;9.648;2023-11-19T11:56:13;11.30;99.90
15386;DHT22;7791;47.246;9.648;2023-11-19T11:58:49;11.20;99.90
15386;DHT22;7791;47.246;9.648;2023-11-19T12:01:59;11.30;99.90
15386;DHT22;7791;47.246;9.648;2023-11-19T12:04:39;10.90;99.90
15386;DHT22;7791;47.246;9.648;2023-11-19T12:07:12;11.00;99.90
15386;DHT22;7791;47.246;9.648;2023-11-19T12:10:05;11.10;99.90
15386;DHT22;7791;47.246;9.648;2023-11-19T12:12:41;11.30;99.90
15386;DHT22;7791;47.246;9.648;2023-11-19T12:15:16;11.00;99.90
15386;DHT22;7791;47.246;9.648;2023-11-19T12:17:57;11.00;99.90
15386;DHT22;7791;47.246;9.648;2023-11-19T12:20:31;11.10;99.90
15386;DHT22;7791;47.246;9.648;2023-11-19T12:23:16;11.40;99.90
15386;DHT22;7791;47.246;9.648;2023-11-19T12:26:04;11.50;99.90
15386;DHT22;7791;47.246;9.648;2023-11-19T12:29:03;11.60;99.90
15386;DHT22;7791;47.246;9.648;2023-11-19T12:31:38;11.60;99.90
15386;DHT22;7791;47.246;9.648;2023-11-19T12:34:32;11.80;99.90
15386;DHT22;7791;47.246;9.648;2023-11-19T12:37:02;12.20;99.90
15386;DHT22;7791;47.246;9.648;2023-11-19T12:39:44;12.50;99.90
15386;DHT22;7791;47.246;9.648;2023-11-19T12:47:52;12.70;99.90
15386;DHT22;7791;47.246;9.648;2023-11-19T12:50:53;12.80;99.90
15386;DHT22;7791;47.246;9.648;2023-11-19T12:53:26;12.40;99.90
15386;DHT22;7791;47.246;9.648;2023-11-19T12:56:30;12.30;99.90
15386;DHT22;7791;47.246;9.648;2023-11-19T12:59:15;12.30;99.90
15386;DHT22;7791;47.246;9.648;2023-11-19T13:02:11;12.50;99.90
15386;DHT22;7791;47.246;9.648;2023-11-19T13:05:00;12.80;99.90
15386;DHT22;7791;47.246;9.648;2023-11-19T13:08:03;12.40;99.90
15386;DHT22;7791;47.246;9.648;2023-11-19T13:16:46;12.30;99.90
15386;DHT22;7791;47.246;9.648;2023-11-19T13:19:29;12.40;99.90
15386;DHT22;7791;47.246;9.648;2023-11-19T13:22:06;12.50;99.90
15386;DHT22;7791;47.246;9.648;2023-11-19T13:24:57;12.50;99.90
15386;DHT22;7791;47.246;9.648;2023-11-19T13:27:41;12.70;99.90
15386;DHT22;7791;47.246;9.648;2023-11-19T13:36:25;12.80;99.90
15386;DHT22;7791;47.246;9.648;2023-11-19T13:41:41;12.70;99.90
15386;DHT22;7791;47.246;9.648;2023-11-19T13:44:15;12.80;99.90
15386;DHT22;7791;47.246;9.648;2023-11-19T13:46:49;13.00;99.90
15386;DHT22;7791;47.246;9.648;2023-11-19T13:50:04;13.00;99.90
15386;DHT22;7791;47.246;9.648;2023-11-19T13:52:33;12.80;99.90
15386;DHT22;7791;47.246;9.648;2023-11-19T13:55:19;12.70;99.90
15386;DHT22;7791;47.246;9.648;2023-11-19T13:57:59;12.70;99.90
15386;DHT22;7791;47.246;9.648;2023-11-19T14:00:30;12.80;99.90
15386;DHT22;7791;47.246;9.648;2023-11-19T14:03:04;12.90;99.90
15386;DHT22;7791;47.246;9.648;2023-11-19T14:05:34;12.40;99.90
15386;DHT22;7791;47.246;9.648;2023-11-19T14:10:51;12.40;99.90
15386;DHT22;7791;47.246;9.648;2023-11-19T14:13:38;12.50;99.90
15386;DHT22;7791;47.246;9.648;2023-11-19T14:16:15;12.50;99.90
15386;DHT22;7791;47.246;9.648;2023-11-19T14:21:41;12.60;99.90
15386;DHT22;7791;47.246;9.648;2023-11-19T14:24:19;12.60;99.90
15386;DHT22;7791;47.246;9.648;2023-11-19T14:26:52;12.40;99.90
15386;DHT22;7791;47.246;9.648;2023-11-19T14:29:52;12.10;99.90
15386;DHT22;7791;47.246;9.648;2023-11-19T14:32:31;12.10;99.90
15386;DHT22;7791;47.246;9.648;2023-11-19T14:35:03;12.10;99.90
15386;DHT22;7791;47.246;9.648;2023-11-19T14:38:28;12.10;99.90
15386;DHT22;7791;47.246;9.648;2023-11-19T14:40:39;12.20;99.90
15386;DHT22;7791;47.246;9.648;2023-11-19T14:43:20;12.20;99.90
15386;DHT22;7791;47.246;9.648;2023-11-19T14:46:09;12.00;99.90
15386;DHT22;7791;47.246;9.648;2023-11-19T14:48:54;12.00;99.90
15386;DHT22;7791;47.246;9.648;2023-11-19T14:51:42;11.80;99.90
15386;DHT22;7791;47.246;9.648;2023-11-19T14:57:06;11.60;99.90
15386;DHT22;7791;47.246;9.648;2023-11-19T14:59:53;11.40;99.90
15386;DHT22;7791;47.246;9.648;2023-11-19T15:02:42;11.50;99.90
15386;DHT22;7791;47.246;9.648;2023-11-19T15:05:22;11.50;99.90
15386;DHT22;7791;47.246;9.648;2023-11-19T15:07:57;11.40;99.90
15386;DHT22;7791;47.246;9.648;2023-11-19T15:10:29;11.50;99.90
15386;DHT22;7791;47.246;9.648;2023-11-19T15:13:07;11.60;99.90
15386;DHT22;7791;47.246;9.648;2023-11-19T15:15:52;11.60;99.90
15386;DHT22;7791;47.246;9.648;2023-11-19T15:18:35;11.60;99.90
15386;DHT22;7791;47.246;9.648;2023-11-19T15:21:05;11.70;99.90
15386;DHT22;7791;47.246;9.648;2023-11-19T15:23:41;11.70;99.90
15386;DHT22;7791;47.246;9.648;2023-11-19T15:26:41;11.70;99.90
15386;DHT22;7791;47.246;9.648;2023-11-19T15:29:13;11.60;99.90
15386;DHT22;7791;47.246;9.648;2023-11-19T15:31:45;11.40;99.90
15386;DHT22;7791;47.246;9.648;2023-11-19T15:34:23;11.40;99.90
15386;DHT22;7791;47.246;9.648;2023-11-19T15:37:09;11.30;99.90
15386;DHT22;7791;47.246;9.648;2023-11-19T15:39:42;11.40;99.90
15386;DHT22;7791;47.246;9.648;2023-11-19T15:42:33;11.30;99.90
15386;DHT22;7791;47.246;9.648;2023-11-19T15:48:13;11.00;99.90
15386;DHT22;7791;47.246;9.648;2023-11-19T15:50:55;11.00;99.90
15386;DHT22;7791;47.246;9.648;2023-11-19T15:53:43;11.00;99.90
15386;DHT22;7791;47.246;9.648;2023-11-19T15:56:32;10.80;99.90
15386;DHT22;7791;47.246;9.648;2023-11-19T15:59:17;10.60;99.90
15386;DHT22;7791;47.246;9.648;2023-11-19T16:02:07;10.60;99.90
15386;DHT22;7791;47.246;9.648;2023-11-19T16:10:32;10.40;99.90
15386;DHT22;7791;47.246;9.648;2023-11-19T16:13:13;10.30;99.90
15386;DHT22;7791;47.246;9.648;2023-11-19T16:16:08;10.20;99.90
15386;DHT22;7791;47.246;9.648;2023-11-19T16:18:46;10.30;99.90
15386;DHT22;7791;47.246;9.648;2023-11-19T16:21:24;10.30;99.90
15386;DHT22;7791;47.246;9.648;2023-11-19T16:24:07;10.30;99.90
15386;DHT22;7791;47.246;9.648;2023-11-19T16:26:44;10.50;99.90
15386;DHT22;7791;47.246;9.648;2023-11-19T16:29:17;10.50;99.90
15386;DHT22;7791;47.246;9.648;2023-11-19T16:31:54;10.20;99.90
15386;DHT22;7791;47.246;9.648;2023-11-19T16:34:26;10.20;99.90
15386;DHT22;7791;47.246;9.648;2023-11-19T16:37:04;9.90;99.90
15386;DHT22;7791;47.246;9.648;2023-11-19T16:42:33;9.80;99.90
15386;DHT22;7791;47.246;9.648;2023-11-19T16:45:03;9.80;99.90
15386;DHT22;7791;47.246;9.648;2023-11-19T16:47:46;9.70;99.90
15386;DHT22;7791;47.246;9.648;2023-11-19T16:53:11;9.40;99.90
15386;DHT22;7791;47.246;9.648;2023-11-19T16:55:47;9.30;99.90
15386;DHT22;7791;47.246;9.648;2023-11-19T17:01:15;9.10;99.90
15386;DHT22;7791;47.246;9.648;2023-11-19T17:03:49;9.30;99.90
15386;DHT22;7791;47.246;9.648;2023-11-19T17:09:11;9.30;99.90
15386;DHT22;7791;47.246;9.648;2023-11-19T17:14:35;9.30;99.90
15386;DHT22;7791;47.246;9.648;2023-11-19T17:17:13;9.30;99.90
15386;DHT22;7791;47.246;9.648;2023-11-19T17:19:42;9.30;99.90
15386;DHT22;7791;47.246;9.648;2023-11-19T17:22:18;9.30;99.90
15386;DHT22;7791;47.246;9.648;2023-11-19T17:25:07;9.30;99.90
15386;DHT22;7791;47.246;9.648;2023-11-19T17:27:43;9.30;99.90
15386;DHT22;7791;47.246;9.648;2023-11-19T17:30:27;9.30;99.90
15386;DHT22;7791;47.246;9.648;2023-11-19T17:33:03;9.10;99.90
15386;DHT22;7791;47.246;9.648;2023-11-19T17:35:45;9.00;99.90
15386;DHT22;7791;47.246;9.648;2023-11-19T17:38:24;9.00;99.90
15386;DHT22;7791;47.246;9.648;2023-11-19T17:41:05;9.10;99.90
15386;DHT22;7791;47.246;9.648;2023-11-19T17:43:53;9.00;99.90
15386;DHT22;7791;47.246;9.648;2023-11-19T17:46:38;9.10;99.90
15386;DHT22;7791;47.246;9.648;2023-11-19T17:49:22;9.20;99.90
15386;DHT22;7791;47.246;9.648;2023-11-19T17:51:51;9.20;99.90
15386;DHT22;7791;47.246;9.648;2023-11-19T17:57:25;9.10;99.90
15386;DHT22;7791;47.246;9.648;2023-11-19T17:59:56;9.40;99.90
15386;DHT22;7791;47.246;9.648;2023-11-19T18:02:56;9.50;99.90
15386;DHT22;7791;47.246;9.648;2023-11-19T18:05:47;9.70;99.90
15386;DHT22;7791;47.246;9.648;2023-11-19T18:08:20;9.60;99.90
15386;DHT22;7791;47.246;9.648;2023-11-19T18:11:04;9.50;99.90
15386;DHT22;7791;47.246;9.648;2023-11-19T18:13:45;9.60;99.90
15386;DHT22;7791;47.246;9.648;2023-11-19T18:16:24;9.70;99.90
15386;DHT22;7791;47.246;9.648;2023-11-19T18:19:08;9.60;99.90
15386;DHT22;7791;47.246;9.648;2023-11-19T18:21:41;9.60;99.90
15386;DHT22;7791;47.246;9.648;2023-11-19T18:27:01;9.80;99.90
15386;DHT22;7791;47.246;9.648;2023-11-19T18:29:49;10.00;99.90
15386;DHT22;7791;47.246;9.648;2023-11-19T18:32:37;10.00;99.90
15386;DHT22;7791;47.246;9.648;2023-11-19T18:35:22;10.10;99.90
15386;DHT22;7791;47.246;9.648;2023-11-19T18:37:55;10.30;99.90
15386;DHT22;7791;47.246;9.648;2023-11-19T18:40:39;10.20;99.90
15386;DHT22;7791;47.246;9.648;2023-11-19T18:43:16;10.30;99.90
15386;DHT22;7791;47.246;9.648;2023-11-19T18:45:59;10.20;99.90
15386;DHT22;7791;47.246;9.648;2023-11-19T18:48:32;10.20;99.90
15386;DHT22;7791;47.246;9.648;2023-11-19T18:51:18;10.00;99.90
15386;DHT22;7791;47.246;9.648;2023-11-19T18:53:57;10.10;99.90
15386;DHT22;7791;47.246;9.648;2023-11-19T18:56:32;10.20;99.90
15386;DHT22;7791;47.246;9.648;2023-11-19T18:59:05;10.20;99.90
15386;DHT22;7791;47.246;9.648;2023-11-19T19:01:52;10.10;99.90
15386;DHT22;7791;47.246;9.648;2023-11-19T19:04:30;10.10;99.90
15386;DHT22;7791;47.246;9.648;2023-11-19T19:07:13;10.00;99.90
15386;DHT22;7791;47.246;9.648;2023-11-19T19:12:35;9.90;99.90
15386;DHT22;7791;47.246;9.648;2023-11-19T19:15:06;9.90;99.90
15386;DHT22;7791;47.246;9.648;2023-11-19T19:17:42;9.80;99.90
15386;DHT22;7791;47.246;9.648;2023-11-19T19:20:25;9.60;99.90
15386;DHT22;7791;47.246;9.648;2023-11-19T19:23:13;9.60;99.90
15386;DHT22;7791;47.246;9.648;2023-11-19T19:25:49;9.60;99.90
15386;DHT22;7791;47.246;9.648;2023-11-19T19:28:47;9.40;99.90
15386;DHT22;7791;47.246;9.648;2023-11-19T19:31:28;9.30;99.90
15386;DHT22;7791;47.246;9.648;2023-11-19T19:33:59;9.20;99.90
15386;DHT22;7791;47.246;9.648;2023-11-19T19:36:41;9.20;99.90
15386;DHT22;7791;47.246;9.648;2023-11-19T19:39:38;9.20;99.90
15386;DHT22;7791;47.246;9.648;2023-11-19T19:42:18;9.10;99.90
15386;DHT22;7791;47.246;9.648;2023-11-19T19:44:52;9.20;99.90
15386;DHT22;7791;47.246;9.648;2023-11-19T19:47:26;9.10;99.90
15386;DHT22;7791;47.246;9.648;2023-11-19T19:50:08;9.10;99.90
15386;DHT22;7791;47.246;9.648;2023-11-19T19:52:40;9.00;99.90